createdAt,value
2023-03-28T00:01:39.429Z,11.82
2023-03-28T00:04:41.481Z,13.77
2023-03-28T00:07:46.188Z,12.37
2023-03-28T00:10:49.948Z,11.50
2023-03-28T00:13:58.265Z,12.25
2023-03-28T00:17:02.045Z,10.52
2023-03-28T00:20:06.894Z,9.90
2023-03-28T00:23:12.234Z,9.95
2023-03-28T00:26:16.528Z,9.82
2023-03-28T00:29:21.575Z,9.48
2023-03-28T00:32:23.611Z,9.85
2023-03-28T00:35:25.951Z,10.07
2023-03-28T00:38:31.529Z,10.20
2023-03-28T00:41:36.889Z,9.88
2023-03-28T00:44:53.722Z,10.18
2023-03-28T00:48:06.078Z,10.27
2023-03-28T00:51:30.067Z,9.70
2023-03-28T00:54:39.792Z,10.30
2023-03-28T00:57:43.384Z,10.30
2023-03-28T01:00:49.245Z,10.13
2023-03-28T01:04:02.425Z,10.05
2023-03-28T01:07:07.758Z,9.63
2023-03-28T01:10:20.480Z,9.48
2023-03-28T01:13:29.763Z,9.75
2023-03-28T01:16:33.830Z,10.73
2023-03-28T01:19:58.843Z,12.20
2023-03-28T01:24:11.567Z,11.25
2023-03-28T01:27:19.542Z,11.52
2023-03-28T01:30:45.894Z,10.25
2023-03-28T01:34:26.096Z,10.32
2023-03-28T01:37:52.387Z,10.52
2023-03-28T01:40:59.309Z,11.43
2023-03-28T01:44:25.752Z,11.43
2023-03-28T01:47:37.100Z,10.75
2023-03-28T01:50:57.161Z,11.30
2023-03-28T01:54:09.309Z,11.18
2023-03-28T01:57:25.515Z,10.95
2023-03-28T02:00:34.901Z,10.95
2023-03-28T02:03:49.308Z,11.90
2023-03-28T02:07:10.959Z,11.48
2023-03-28T02:10:33.025Z,10.38
2023-03-28T02:14:00.979Z,11.48
2023-03-28T02:17:23.997Z,12.10
2023-03-28T02:21:02.585Z,10.88
2023-03-28T02:24:38.940Z,11.73
2023-03-28T02:27:52.881Z,11.85
2023-03-28T02:31:15.487Z,12.25
2023-03-28T02:34:17.515Z,12.48
2023-03-28T02:37:49.640Z,12.85
2023-03-28T02:41:02.986Z,12.10
2023-03-28T02:44:22.676Z,11.23
2023-03-28T02:47:34.425Z,12.48
2023-03-28T02:51:14.040Z,11.48
2023-03-28T02:54:38.381Z,12.02
2023-03-28T02:58:02.249Z,12.20
2023-03-28T03:01:08.095Z,11.88
2023-03-28T03:04:13.748Z,12.60
2023-03-28T03:07:19.062Z,11.77
2023-03-28T03:10:22.126Z,12.35
2023-03-28T03:13:29.751Z,12.23
2023-03-28T03:16:38.698Z,12.13
2023-03-28T03:19:43.527Z,11.40
2023-03-28T03:25:55.351Z,11.85
2023-03-28T03:29:03.050Z,12.07
2023-03-28T03:32:09.238Z,12.18
2023-03-28T03:35:22.483Z,13.02
2023-03-28T03:38:24.424Z,13.23
2023-03-28T03:41:29.463Z,12.73
2023-03-28T03:44:31.652Z,12.90
2023-03-28T03:47:37.846Z,12.93
2023-03-28T03:50:40.021Z,13.80
2023-03-28T03:53:53.118Z,13.45
2023-03-28T03:57:00.011Z,13.93
2023-03-28T04:00:08.518Z,13.57
2023-03-28T04:03:24.170Z,13.50
2023-03-28T04:06:29.639Z,13.95
2023-03-28T04:09:32.913Z,14.13
2023-03-28T04:12:38.202Z,13.57
2023-03-28T04:15:40.788Z,13.57
2023-03-28T04:19:04.309Z,13.45
2023-03-28T04:22:08.254Z,14.32
2023-03-28T04:25:10.442Z,13.43
2023-03-28T04:28:16.350Z,14.18
2023-03-28T04:31:36.227Z,14.00
2023-03-28T04:34:54.726Z,13.82
2023-03-28T04:37:59.048Z,14.48
2023-03-28T04:41:04.539Z,12.82
2023-03-28T04:44:34.909Z,12.55
2023-03-28T04:47:40.332Z,12.88
2023-03-28T04:50:51.505Z,13.35
2023-03-28T04:53:55.210Z,13.98
2023-03-28T04:57:20.873Z,12.68
2023-03-28T05:00:36.747Z,13.23
2023-03-28T05:03:42.699Z,12.80
2023-03-28T05:06:49.467Z,13.45
2023-03-28T05:09:52.441Z,13.32
2023-03-28T05:12:56.189Z,12.80
2023-03-28T05:15:59.195Z,13.10
2023-03-28T05:19:20.908Z,13.38
2023-03-28T05:22:43.087Z,12.60
2023-03-28T05:25:50.655Z,13.75
2023-03-28T05:28:52.708Z,13.32
2023-03-28T05:31:54.943Z,12.20
2023-03-28T05:35:03.135Z,12.43
2023-03-28T05:38:07.387Z,12.70
2023-03-28T05:41:10.063Z,12.20
2023-03-28T05:44:12.020Z,12.63
2023-03-28T05:47:57.528Z,12.57
2023-03-28T05:51:02.177Z,11.35
2023-03-28T05:54:06.202Z,12.13
2023-03-28T05:57:08.122Z,11.95
2023-03-28T06:00:13.689Z,12.70
2023-03-28T06:03:22.401Z,12.88
2023-03-28T06:06:26.272Z,12.85
2023-03-28T06:09:31.576Z,13.55
2023-03-28T06:12:35.538Z,11.57
2023-03-28T06:15:38.025Z,12.93
2023-03-28T06:18:39.946Z,11.68
2023-03-28T06:21:41.856Z,11.43
2023-03-28T06:24:45.648Z,10.93
2023-03-28T06:27:47.528Z,10.20
2023-03-28T06:30:53.156Z,9.50
2023-03-28T06:33:55.276Z,8.43
2023-03-28T06:40:07.251Z,8.55
2023-03-28T06:43:11.544Z,8.90
2023-03-28T06:46:22.770Z,9.50
2023-03-28T06:49:24.850Z,8.15
2023-03-28T06:52:47.002Z,8.07
2023-03-28T06:55:52.126Z,7.18
2023-03-28T06:58:56.851Z,8.30
2023-03-28T07:02:02.198Z,7.63
2023-03-28T07:05:07.873Z,7.22
2023-03-28T07:08:13.477Z,6.97
2023-03-28T07:11:15.424Z,6.75
2023-03-28T07:14:20.035Z,6.93
2023-03-28T07:17:25.128Z,6.10
2023-03-28T07:20:27.999Z,6.60
2023-03-28T07:23:30.639Z,6.45
2023-03-28T07:26:32.564Z,6.75
2023-03-28T07:29:34.415Z,7.27
2023-03-28T07:32:48.129Z,7.50
2023-03-28T07:35:56.445Z,6.95
2023-03-28T07:38:58.319Z,7.13
2023-03-28T07:42:02.950Z,7.10
2023-03-28T07:45:06.299Z,6.80
2023-03-28T07:48:08.699Z,6.85
2023-03-28T07:51:11.288Z,6.70
2023-03-28T07:54:17.886Z,6.60
2023-03-28T07:57:23.060Z,6.20
2023-03-28T08:00:45.669Z,7.40
2023-03-28T08:04:06.691Z,5.63
2023-03-28T08:07:20.063Z,4.85
2023-03-28T08:10:26.197Z,4.60
2023-03-28T08:13:33.762Z,4.45
2023-03-28T08:16:42.568Z,4.63
2023-03-28T08:22:47.107Z,3.58
2023-03-28T08:26:08.080Z,3.40
2023-03-28T08:29:13.073Z,3.90
2023-03-28T08:32:17.241Z,3.93
2023-03-28T08:35:19.168Z,4.60
2023-03-28T08:38:24.759Z,4.22
2023-03-28T08:42:06.273Z,4.75
2023-03-28T08:45:12.571Z,4.15
2023-03-28T08:48:21.787Z,3.88
2023-03-28T08:51:30.159Z,3.90
2023-03-28T08:54:43.505Z,4.25
2023-03-28T08:57:45.942Z,5.13
2023-03-28T09:00:49.406Z,5.00
2023-03-28T09:03:51.645Z,5.55
2023-03-28T09:07:12.019Z,5.20
2023-03-28T09:10:23.107Z,4.60
2023-03-28T09:14:12.454Z,4.22
2023-03-28T09:17:33.782Z,4.20
2023-03-28T09:20:59.044Z,3.85
2023-03-28T09:24:13.560Z,4.10
2023-03-28T09:27:49.059Z,5.25
2023-03-28T09:30:53.830Z,3.08
2023-03-28T09:34:00.353Z,2.90
2023-03-28T09:37:30.115Z,2.75
2023-03-28T09:40:34.602Z,2.33
2023-03-28T09:44:00.757Z,2.58
2023-03-28T09:47:19.047Z,5.05
2023-03-28T09:50:29.852Z,3.65
2023-03-28T09:53:37.085Z,2.72
2023-03-28T09:56:42.362Z,2.70
2023-03-28T10:00:21.284Z,2.65
2023-03-28T10:03:54.650Z,3.53
2023-03-28T10:07:09.446Z,3.60
2023-03-28T10:10:24.981Z,4.65
2023-03-28T10:13:45.726Z,4.30
2023-03-28T10:16:47.751Z,3.10
2023-03-28T10:20:06.208Z,2.88
2023-03-28T10:23:15.240Z,2.55
2023-03-28T10:26:24.702Z,3.05
2023-03-28T10:29:28.280Z,2.53
2023-03-28T10:32:31.856Z,2.63
2023-03-28T10:36:07.773Z,3.70
2023-03-28T10:39:24.915Z,3.45
2023-03-28T10:42:47.384Z,3.13
2023-03-28T10:46:16.786Z,4.00
2023-03-28T10:49:54.253Z,4.10
2023-03-28T10:53:15.660Z,3.88
2023-03-28T10:56:42.874Z,4.57
2023-03-28T10:59:54.485Z,5.38
2023-03-28T11:03:07.258Z,5.72
2023-03-28T11:06:25.568Z,4.78
2023-03-28T11:09:34.400Z,5.40
2023-03-28T11:13:28.631Z,5.55
2023-03-28T11:16:57.854Z,5.32
2023-03-28T11:20:32.269Z,4.32
2023-03-28T11:23:54.887Z,5.20
2023-03-28T11:27:20.200Z,4.60
2023-03-28T11:30:26.311Z,4.22
2023-03-28T11:34:07.020Z,4.60
2023-03-28T11:37:17.593Z,4.20
2023-03-28T11:40:27.754Z,4.35
2023-03-28T11:44:25.118Z,8.60
2023-03-28T11:47:40.424Z,8.40
2023-03-28T11:51:01.648Z,5.55
2023-03-28T11:54:39.276Z,7.22
2023-03-28T11:58:02.893Z,3.83
2023-03-28T12:01:35.363Z,7.00
2023-03-28T12:04:53.785Z,5.00
2023-03-28T12:08:13.733Z,9.40
2023-03-28T12:11:25.841Z,10.10
2023-03-28T12:14:46.151Z,8.98
2023-03-28T12:18:13.580Z,18.85
2023-03-28T12:21:17.587Z,8.00
2023-03-28T12:24:35.349Z,5.38
2023-03-28T12:27:54.674Z,2.70
2023-03-28T12:31:18.220Z,5.25
2023-03-28T12:34:32.670Z,4.68
2023-03-28T12:38:29.430Z,3.30
2023-03-28T12:41:46.359Z,4.22
2023-03-28T12:44:54.511Z,3.60
2023-03-28T12:48:04.220Z,3.83
2023-03-28T12:51:16.181Z,10.30
2023-03-28T12:54:36.221Z,5.45
2023-03-28T12:57:40.573Z,3.22
2023-03-28T13:01:04.552Z,3.70
2023-03-28T13:04:30.396Z,3.30
2023-03-28T13:08:09.699Z,3.20
2023-03-28T13:11:28.625Z,5.63
2023-03-28T13:14:41.972Z,6.03
2023-03-28T13:18:27.891Z,10.00
2023-03-28T13:21:51.859Z,7.18
2023-03-28T13:25:13.861Z,5.10
2023-03-28T13:28:18.671Z,4.25
2023-03-28T13:31:25.827Z,4.40
2023-03-28T13:34:34.414Z,4.93
2023-03-28T13:37:47.785Z,4.78
2023-03-28T13:41:01.469Z,4.50
2023-03-28T13:44:10.941Z,5.07
2023-03-28T13:47:20.256Z,6.28
2023-03-28T13:50:32.795Z,7.30
2023-03-28T13:53:47.038Z,5.18
2023-03-28T13:56:52.622Z,6.15
2023-03-28T14:00:02.368Z,6.95
2023-03-28T14:03:18.055Z,11.35
2023-03-28T14:06:29.246Z,13.05
2023-03-28T14:09:33.758Z,8.60
2023-03-28T14:12:36.579Z,7.85
2023-03-28T14:18:48.064Z,6.72
2023-03-28T14:21:50.592Z,6.40
2023-03-28T14:24:56.489Z,6.32
2023-03-28T14:28:11.523Z,6.35
2023-03-28T14:31:35.085Z,6.30
2023-03-28T14:34:42.170Z,13.00
2023-03-28T14:37:51.276Z,10.70
2023-03-28T14:40:54.013Z,6.60
2023-03-28T14:43:57.872Z,6.20
2023-03-28T14:47:00.205Z,7.22
2023-03-28T14:50:03.753Z,8.60
2023-03-28T14:53:11.350Z,7.95
2023-03-28T14:56:19.383Z,7.43
2023-03-28T14:59:32.780Z,7.38
2023-03-28T15:02:41.392Z,6.85
2023-03-28T15:05:48.656Z,6.55
2023-03-28T15:08:50.892Z,6.13
2023-03-28T15:11:57.219Z,6.60
2023-03-28T15:15:01.391Z,13.35
2023-03-28T15:18:08.997Z,18.20
2023-03-28T15:21:11.786Z,15.50
2023-03-28T15:24:17.129Z,34.33
2023-03-28T15:27:30.964Z,46.13
2023-03-28T15:30:35.827Z,27.85
2023-03-28T15:33:37.704Z,85.13
2023-03-28T15:36:49.644Z,69.50
2023-03-28T15:39:53.121Z,9.60
2023-03-28T15:42:56.384Z,23.10
2023-03-28T15:46:02.363Z,15.00
2023-03-28T15:49:07.251Z,12.18
2023-03-28T15:52:21.217Z,39.25
2023-03-28T15:55:27.108Z,17.05
2023-03-28T15:58:28.979Z,13.02
2023-03-28T16:01:32.852Z,15.80
2023-03-28T16:04:34.808Z,10.57
2023-03-28T16:07:46.965Z,10.13
2023-03-28T16:10:48.876Z,19.47
2023-03-28T16:14:19.935Z,29.17
2023-03-28T16:17:56.252Z,11.77
2023-03-28T16:21:20.359Z,11.10
2023-03-28T16:24:22.216Z,10.00
2023-03-28T16:27:24.034Z,31.07
2023-03-28T16:30:34.851Z,19.48
2023-03-28T16:33:36.863Z,11.40
2023-03-28T16:36:41.582Z,20.20
2023-03-28T16:39:44.052Z,10.13
2023-03-28T16:42:48.438Z,11.57
2023-03-28T16:46:12.378Z,15.10
2023-03-28T16:49:17.474Z,13.32
2023-03-28T16:52:19.311Z,11.50
2023-03-28T16:55:21.238Z,44.35
2023-03-28T16:58:29.170Z,24.73
2023-03-28T17:01:31.879Z,37.83
2023-03-28T17:04:34.004Z,54.33
2023-03-28T17:07:36.244Z,36.63
2023-03-28T17:10:44.003Z,14.27
2023-03-28T17:13:47.580Z,48.25
2023-03-28T17:16:52.065Z,48.45
2023-03-28T17:19:53.926Z,13.23
2023-03-28T17:22:58.846Z,13.52
2023-03-28T17:26:01.359Z,18.27
2023-03-28T17:29:05.475Z,18.38
2023-03-28T17:32:09.230Z,14.60
2023-03-28T17:35:12.298Z,25.88
2023-03-28T17:38:14.590Z,32.78
2023-03-28T17:41:17.499Z,16.58
2023-03-28T17:44:19.415Z,26.00
2023-03-28T17:47:21.418Z,19.77
2023-03-28T17:50:23.400Z,16.73
2023-03-28T17:53:26.707Z,17.00
2023-03-28T17:56:28.676Z,18.90
2023-03-28T17:59:31.715Z,23.17
2023-03-28T18:02:33.718Z,19.08
2023-03-28T18:05:55.884Z,20.00
2023-03-28T18:08:57.777Z,22.40
2023-03-28T18:12:03.061Z,18.08
2023-03-28T18:15:06.461Z,36.50
2023-03-28T18:18:09.338Z,18.45
2023-03-28T18:24:15.196Z,16.88
2023-03-28T18:27:17.056Z,17.45
2023-03-28T18:30:19.034Z,17.60
2023-03-28T18:33:22.222Z,22.03
2023-03-28T18:36:24.708Z,20.67
2023-03-28T18:39:28.664Z,19.95
2023-03-28T18:42:30.789Z,22.10
2023-03-28T18:45:35.395Z,27.45
2023-03-28T18:48:37.311Z,20.95
2023-03-28T18:51:39.761Z,27.07
2023-03-28T18:54:47.225Z,15.77
2023-03-28T18:57:49.268Z,16.70
2023-03-28T19:01:04.428Z,17.93
2023-03-28T19:04:08.199Z,17.10
2023-03-28T19:07:17.279Z,16.58
2023-03-28T19:10:22.006Z,17.27
2023-03-28T19:13:25.182Z,19.40
2023-03-28T19:16:27.097Z,18.17
2023-03-28T19:19:39.096Z,15.32
2023-03-28T19:22:41.401Z,13.50
2023-03-28T19:25:43.415Z,12.48
2023-03-28T19:28:46.922Z,13.47
2023-03-28T19:31:52.229Z,12.65
2023-03-28T19:34:57.292Z,12.05
2023-03-28T19:37:59.366Z,12.95
2023-03-28T19:41:08.545Z,12.20
2023-03-28T19:44:11.850Z,12.48
2023-03-28T19:47:15.963Z,13.18
2023-03-28T19:50:18.492Z,11.90
2023-03-28T19:53:22.512Z,11.50
2023-03-28T19:56:27.192Z,11.55
2023-03-28T19:59:29.313Z,12.05
2023-03-28T20:02:31.245Z,12.33
2023-03-28T20:05:33.155Z,11.20
2023-03-28T20:08:35.650Z,11.50
2023-03-28T20:11:42.060Z,11.27
2023-03-28T20:14:46.534Z,12.15
2023-03-28T20:17:48.700Z,10.55
2023-03-28T20:20:58.817Z,7.85
2023-03-28T20:24:00.820Z,7.45
2023-03-28T20:27:02.821Z,7.27
2023-03-28T20:30:08.441Z,7.15
2023-03-28T20:33:10.364Z,7.22
2023-03-28T20:36:12.297Z,7.53
2023-03-28T20:39:14.357Z,6.85
2023-03-28T20:42:19.534Z,6.43
2023-03-28T20:45:24.628Z,6.88
2023-03-28T20:48:36.754Z,6.93
2023-03-28T20:51:39.465Z,6.87
2023-03-28T20:54:43.380Z,6.45
2023-03-28T20:57:48.145Z,6.95
2023-03-28T21:00:53.756Z,7.07
2023-03-28T21:03:59.078Z,7.40
2023-03-28T21:07:01.868Z,6.93
2023-03-28T21:10:07.545Z,6.30
2023-03-28T21:13:09.414Z,6.10
2023-03-28T21:16:14.332Z,5.85
2023-03-28T21:19:16.647Z,5.32
2023-03-28T21:22:20.713Z,4.53
2023-03-28T21:25:27.326Z,4.18
2023-03-28T21:28:32.589Z,4.00
2023-03-28T21:31:43.664Z,3.72
2023-03-28T21:34:45.584Z,4.47
2023-03-28T21:37:47.410Z,4.70
2023-03-28T21:40:50.479Z,5.82
2023-03-28T21:43:55.877Z,5.60
2023-03-28T21:46:58.353Z,4.88
2023-03-28T21:50:00.358Z,5.00
2023-03-28T21:53:02.246Z,5.30
2023-03-28T21:56:06.802Z,5.03
2023-03-28T21:59:10.747Z,5.47
2023-03-28T22:02:14.976Z,6.00
2023-03-28T22:05:28.786Z,6.03
2023-03-28T22:08:31.718Z,6.70
2023-03-28T22:11:35.216Z,6.57
2023-03-28T22:14:42.778Z,6.60
2023-03-28T22:17:46.282Z,6.93
2023-03-28T22:20:53.352Z,6.75
2023-03-28T22:23:55.601Z,8.57
2023-03-28T22:27:00.948Z,8.87
2023-03-28T22:30:03.259Z,10.35
2023-03-28T22:33:06.360Z,9.20
2023-03-28T22:36:09.016Z,10.07
2023-03-28T22:39:10.871Z,11.02
2023-03-28T22:42:20.155Z,10.45
2023-03-28T22:45:22.999Z,9.30
2023-03-28T22:48:25.135Z,8.52
2023-03-28T22:51:28.090Z,6.55
2023-03-28T22:54:37.447Z,5.25
2023-03-28T22:57:42.034Z,4.03
2023-03-28T23:00:44.013Z,4.30
2023-03-28T23:03:46.071Z,3.90
2023-03-28T23:06:50.364Z,3.73
2023-03-28T23:09:55.033Z,3.72
2023-03-28T23:12:59.892Z,3.70
2023-03-28T23:16:09.871Z,3.53
2023-03-28T23:19:11.816Z,3.50
2023-03-28T23:22:15.281Z,3.90
2023-03-28T23:25:18.954Z,3.92
2023-03-28T23:28:21.089Z,4.40
2023-03-28T23:31:23.024Z,4.40
2023-03-28T23:34:25.056Z,4.37
2023-03-28T23:37:27.522Z,4.43
2023-03-28T23:40:29.468Z,4.85
2023-03-28T23:43:31.361Z,4.85
2023-03-28T23:46:33.753Z,4.88
2023-03-28T23:49:35.811Z,5.32
2023-03-28T23:52:37.821Z,6.77
2023-03-28T23:55:40.065Z,7.17
2023-03-28T23:58:42.014Z,8.25
